Time;durP1;ratioP1;P1;durP2;ratioP2;P2;SDS_P1;SDS_P2;PMS_P1;PMS_P2;Temp;Humidity;BMP_temperature;BMP_pressure;BME280_temperature;BME280_humidity;BME280_pressure;Samples;Min_cycle;Max_cycle;Signal;HPM_P1;HPM_P2
2023/02/27 10:11:54;;;;;;;10.10;9.60;;;8.10;64.20;;;;;;5106226;27;21222;-76
2023/02/27 10:14:31;;;;;;;10.63;10.23;;;8.20;62.10;;;;;;5106391;28;20845;-77
2023/02/27 10:17:02;;;;;;;10.07;9.57;;;8.10;61.70;;;;;;5105842;28;20445;-75
2023/02/27 10:19:33;;;;;;;10.90;10.40;;;8.20;61.00;;;;;;5105664;28;20445;-76
2023/02/27 10:22:05;;;;;;;10.80;10.30;;;7.70;60.00;;;;;;5106268;28;20445;-76
2023/02/27 10:24:35;;;;;;;9.60;9.20;;;7.60;61.20;;;;;;5106302;28;20944;-76
2023/02/27 10:27:07;;;;;;;9.63;9.23;;;8.20;61.10;;;;;;5105944;28;20507;-76
2023/02/27 10:29:38;;;;;;;10.40;10.00;;;8.00;59.90;;;;;;5106164;28;20492;-76
2023/02/27 10:32:11;;;;;;;9.90;9.50;;;8.10;60.00;;;;;;5106120;28;20457;-76
2023/02/27 10:34:40;;;;;;;10.50;10.00;;;8.40;60.00;;;;;;5106129;28;20450;-75
2023/02/27 10:37:10;;;;;;;10.57;10.07;;;8.70;58.90;;;;;;5106212;28;20461;-76
2023/02/27 10:39:45;;;;;;;8.33;8.00;;;8.90;58.10;;;;;;5105573;28;20452;-77
2023/02/27 10:42:16;;;;;;;10.00;9.60;;;8.70;57.10;;;;;;5105638;28;20453;-76
2023/02/27 10:44:43;;;;;;;10.83;10.43;;;8.70;57.80;;;;;;5106041;28;20452;-75
2023/02/27 10:47:15;;;;;;;10.27;9.80;;;9.40;57.50;;;;;;5105912;28;20476;-76
2023/02/27 10:49:43;;;;;;;10.93;10.43;;;9.80;56.10;;;;;;5105786;28;20884;-75
2023/02/27 10:52:13;;;;;;;11.00;10.57;;;8.40;55.40;;;;;;5105584;28;20894;-75
2023/02/27 10:54:41;;;;;;;9.20;8.90;;;8.00;56.70;;;;;;5105652;28;21003;-76
2023/02/27 10:57:25;;;;;;;10.43;10.03;;;7.90;56.80;;;;;;5105505;28;20458;-76
2023/02/27 10:59:54;;;;;;;9.20;8.80;;;7.90;56.10;;;;;;5105507;28;20453;-75
2023/02/27 11:02:24;;;;;;;10.30;9.80;;;7.60;56.20;;;;;;5106091;28;20564;-76
2023/02/27 11:04:53;;;;;;;10.30;9.87;;;8.00;57.20;;;;;;5105545;28;20449;-75
2023/02/27 11:07:29;;;;;;;9.90;9.50;;;8.30;56.00;;;;;;5105637;28;20465;-76
2023/02/27 11:10:03;;;;;;;9.23;8.63;;;8.50;56.50;;;;;;5105373;28;20495;-75
2023/02/27 11:12:33;;;;;;;10.57;10.17;;;9.00;56.30;;;;;;5092946;28;20457;-75
2023/02/27 11:15:02;;;;;;;10.67;10.07;;;9.70;55.60;;;;;;5092116;28;20457;-75
2023/02/27 11:17:31;;;;;;;9.73;9.43;;;10.00;53.20;;;;;;5091773;28;20842;-75
2023/02/27 11:20:00;;;;;;;10.10;9.53;;;8.80;54.40;;;;;;5091777;28;20482;-75
2023/02/27 11:22:28;;;;;;;9.23;8.80;;;8.10;55.40;;;;;;5091763;28;20508;-75
2023/02/27 11:25:17;;;;;;;12.47;11.87;;;8.50;56.30;;;;;;5091111;28;20454;-76
2023/02/27 11:27:46;;;;;;;11.17;10.67;;;9.50;56.00;;;;;;5091034;28;21014;-74
2023/02/27 11:30:23;;;;;;;10.97;10.47;;;9.90;54.20;;;;;;5091394;28;20569;-74
2023/02/27 11:32:51;;;;;;;8.93;8.53;;;9.60;53.40;;;;;;5091467;28;20453;-74
2023/02/27 11:35:24;;;;;;;10.50;10.00;;;8.60;54.80;;;;;;5091674;28;20949;-73
2023/02/27 11:37:53;;;;;;;9.70;9.30;;;8.30;55.10;;;;;;5091353;28;20446;-73
2023/02/27 11:40:24;;;;;;;9.57;9.17;;;8.30;55.90;;;;;;5091142;28;20450;-74
2023/02/27 11:42:55;;;;;;;9.23;8.73;;;8.10;55.90;;;;;;5090816;28;20454;-74
2023/02/27 11:45:28;;;;;;;10.17;9.43;;;7.60;56.80;;;;;;5091202;28;20454;-75
2023/02/27 11:48:00;;;;;;;11.10;10.60;;;8.00;57.40;;;;;;5091037;28;20537;-74
2023/02/27 11:50:54;;;;;;;9.80;9.47;;;7.80;57.20;;;;;;5090811;28;20531;-74
2023/02/27 11:53:47;;;;;;;9.57;9.17;;;7.60;58.00;;;;;;5090684;28;20490;-74
2023/02/27 11:56:19;;;;;;;9.47;9.07;;;8.10;57.40;;;;;;5090519;28;20476;-73
2023/02/27 11:58:54;;;;;;;9.70;9.30;;;8.50;56.90;;;;;;5090567;28;20458;-74
2023/02/27 12:01:24;;;;;;;9.07;8.73;;;9.50;56.30;;;;;;5090806;28;20445;-74
2023/02/27 12:03:57;;;;;;;10.53;9.90;;;9.90;54.80;;;;;;5090612;28;20454;-74
2023/02/27 12:06:29;;;;;;;11.17;10.77;;;10.10;53.40;;;;;;5090318;28;20451;-75
2023/02/27 12:09:00;;;;;;;11.80;11.23;;;10.70;53.10;;;;;;5089603;28;20458;-75
2023/02/27 12:11:31;;;;;;;11.67;10.90;;;11.10;53.20;;;;;;5089156;28;20543;-74
2023/02/27 12:14:08;;;;;;;10.50;10.00;;;11.30;52.20;;;;;;5089433;28;20937;-74
2023/02/27 12:16:39;;;;;;;11.03;10.53;;;11.40;51.40;;;;;;5089508;28;20450;-75
2023/02/27 12:19:16;;;;;;;11.03;10.37;;;11.40;51.50;;;;;;5089369;28;20465;-74
2023/02/27 12:21:47;;;;;;;10.87;10.20;;;12.00;50.40;;;;;;5089047;28;20836;-74
2023/02/27 12:24:21;;;;;;;11.50;11.00;;;11.40;50.60;;;;;;5088250;28;20460;-75
2023/02/27 12:26:52;;;;;;;10.93;10.53;;;11.30;49.70;;;;;;5089412;28;20438;-74
2023/02/27 12:29:29;;;;;;;10.53;10.13;;;10.80;50.60;;;;;;5089204;28;20453;-74
2023/02/27 12:32:01;;;;;;;10.70;10.17;;;10.40;50.20;;;;;;5089058;28;20614;-73
2023/02/27 12:34:38;;;;;;;9.80;9.40;;;9.90;52.30;;;;;;5088740;28;20461;-74
2023/02/27 12:37:10;;;;;;;9.37;8.93;;;9.00;53.70;;;;;;5089124;28;20465;-73
2023/02/27 12:39:39;;;;;;;9.67;9.37;;;7.70;55.30;;;;;;5089145;28;20538;-74
2023/02/27 12:42:24;;;;;;;11.17;10.40;;;6.50;57.30;;;;;;5089046;28;20870;-73
2023/02/27 12:45:10;;;;;;;10.10;9.70;;;6.20;58.80;;;;;;5088721;28;20446;-74
2023/02/27 12:47:45;;;;;;;9.93;9.53;;;6.20;59.20;;;;;;5088850;28;20499;-74
2023/02/27 12:50:16;;;;;;;9.97;9.57;;;7.40;58.60;;;;;;5089155;28;20497;-75
2023/02/27 12:52:57;;;;;;;10.90;10.30;;;7.70;56.00;;;;;;5088953;28;20469;-74
2023/02/27 12:55:27;;;;;;;9.60;9.20;;;6.40;56.80;;;;;;5089245;28;21011;-74
2023/02/27 12:58:14;;;;;;;10.60;10.20;;;5.90;59.30;;;;;;5089052;28;20447;-75
2023/02/27 13:00:48;;;;;;;10.77;10.17;;;5.60;60.20;;;;;;5088460;28;20477;-74
2023/02/27 13:03:18;;;;;;;9.17;8.67;;;5.40;61.60;;;;;;5088513;28;20462;-74
2023/02/27 13:05:54;;;;;;;8.97;8.57;;;5.10;62.10;;;;;;5088529;28;20454;-74
2023/02/27 13:08:42;;;;;;;10.37;9.93;;;4.90;63.70;;;;;;5088504;28;20485;-74
2023/02/27 13:11:20;;;;;;;10.13;9.73;;;4.70;62.90;;;;;;5088251;28;20493;-74
2023/02/27 13:13:50;;;;;;;10.60;10.00;;;4.70;64.10;;;;;;5088616;28;20879;-74
2023/02/27 13:16:21;;;;;;;10.13;9.73;;;6.00;63.70;;;;;;5088711;28;20458;-74
2023/02/27 13:18:54;;;;;;;10.23;9.73;;;7.20;61.10;;;;;;5088314;28;20474;-74
2023/02/27 13:21:27;;;;;;;10.10;9.60;;;7.70;58.80;;;;;;5088450;28;20556;-74
2023/02/27 13:24:06;;;;;;;9.80;9.43;;;8.20;57.40;;;;;;5088154;28;20565;-74
2023/02/27 13:26:38;;;;;;;9.10;8.70;;;7.90;56.90;;;;;;5088394;28;20453;-75
2023/02/27 13:29:05;;;;;;;9.70;9.30;;;6.70;57.70;;;;;;5088089;28;20929;-75
2023/02/27 13:31:42;;;;;;;9.67;9.17;;;5.90;59.90;;;;;;5088319;28;20497;-74
2023/02/27 13:34:17;;;;;;;9.23;8.83;;;5.40;62.10;;;;;;5087640;28;20572;-74
2023/02/27 13:36:46;;;;;;;9.77;9.20;;;5.00;61.80;;;;;;5087717;28;20456;-74
2023/02/27 13:39:39;;;;;;;7.77;7.40;;;4.90;62.90;;;;;;5087653;28;20442;-74
2023/02/27 13:42:48;;;;;;;9.27;8.80;;;4.70;63.50;;;;;;5087552;28;20476;-74
2023/02/27 13:45:58;;;;;;;10.63;10.10;;;4.60;64.20;;;;;;5088087;28;20549;-74
2023/02/27 13:48:45;;;;;;;10.60;10.17;;;4.70;64.60;;;;;;5071843;28;20458;-74
2023/02/27 13:51:55;;;;;;;9.40;8.90;;;4.80;65.30;;;;;;5087791;28;20552;-74
2023/02/27 13:54:28;;;;;;;10.33;9.93;;;5.10;64.60;;;;;;5087852;28;20446;-73
2023/02/27 13:57:21;;;;;;;9.50;9.10;;;5.50;65.10;;;;;;5087735;28;20584;-73
2023/02/27 13:59:54;;;;;;;10.80;10.20;;;5.60;62.90;;;;;;5087732;28;20450;-73
2023/02/27 14:02:32;;;;;;;9.13;8.80;;;5.90;63.70;;;;;;5087775;28;20925;-73
2023/02/27 14:05:04;;;;;;;9.60;8.90;;;6.20;63.80;;;;;;5087972;28;20529;-73
2023/02/27 14:07:34;;;;;;;10.67;10.27;;;6.00;64.00;;;;;;5088390;28;20470;-73
2023/02/27 14:10:05;;;;;;;9.43;9.03;;;5.40;64.70;;;;;;5087954;28;20496;-73
2023/02/27 14:12:34;;;;;;;9.77;9.27;;;5.10;64.90;;;;;;5088264;28;20450;-74
2023/02/27 14:15:02;;;;;;;9.13;8.80;;;4.80;66.30;;;;;;5087660;28;20921;-73
2023/02/27 14:17:44;;;;;;;10.70;9.90;;;4.70;66.20;;;;;;5087720;28;20466;-73
2023/02/27 14:20:14;;;;;;;11.00;10.30;;;4.70;66.10;;;;;;5087749;28;20446;-74
2023/02/27 14:23:09;;;;;;;10.10;9.40;;;4.80;66.70;;;;;;5087566;28;20690;-73
2023/02/27 14:25:39;;;;;;;8.70;8.40;;;5.00;66.80;;;;;;5087616;28;20841;-73
2023/02/27 14:28:15;;;;;;;10.20;9.70;;;5.30;66.50;;;;;;5087151;28;21020;-73
2023/02/27 14:30:45;;;;;;;10.00;9.60;;;5.20;66.10;;;;;;5087283;28;20999;-73
2023/02/27 14:33:20;;;;;;;8.60;8.20;;;5.20;66.10;;;;;;5087357;28;20450;-73
2023/02/27 14:35:57;;;;;;;9.50;9.00;;;5.10;67.20;;;;;;5087906;28;20449;-73
2023/02/27 14:38:25;;;;;;;8.77;8.37;;;5.00;67.50;;;;;;5087354;28;20587;-74
2023/02/27 14:41:05;;;;;;;7.60;7.30;;;5.00;67.60;;;;;;5087231;28;20442;-74
2023/02/27 14:43:39;;;;;;;9.77;9.33;;;4.80;67.30;;;;;;5087568;28;20967;-74
2023/02/27 14:46:21;;;;;;;9.40;8.70;;;4.60;66.60;;;;;;5087933;28;20458;-73
2023/02/27 14:48:53;;;;;;;9.17;8.67;;;4.50;66.40;;;;;;5091584;28;20442;-73
2023/02/27 14:51:22;;;;;;;10.07;9.40;;;4.50;67.30;;;;;;5091022;28;20497;-73
2023/02/27 14:54:00;;;;;;;8.47;8.10;;;4.60;67.50;;;;;;5090948;28;20542;-73
2023/02/27 14:56:27;;;;;;;9.50;9.00;;;4.60;67.90;;;;;;5091234;28;20474;-73
2023/02/27 14:58:55;;;;;;;9.57;9.27;;;4.70;68.50;;;;;;5090828;28;20450;-73
2023/02/27 15:01:23;;;;;;;9.43;8.97;;;4.60;68.30;;;;;;5090752;28;20454;-74
2023/02/27 15:03:53;;;;;;;9.20;8.70;;;4.60;68.90;;;;;;5090852;28;20782;-73
2023/02/27 15:06:24;;;;;;;9.13;8.73;;;4.70;68.00;;;;;;5091401;28;20476;-73
2023/02/27 15:08:53;;;;;;;9.23;8.60;;;4.80;68.30;;;;;;5090796;28;20477;-73
2023/02/27 15:11:22;;;;;;;8.60;8.17;;;4.90;69.00;;;;;;5087786;28;20494;-72
2023/02/27 15:13:56;;;;;;;9.90;9.20;;;4.90;67.90;;;;;;5079744;28;20872;-72
2023/02/27 15:16:33;;;;;;;9.00;8.60;;;4.70;68.60;;;;;;5070003;28;20945;-72
2023/02/27 15:19:11;;;;;;;9.30;8.70;;;4.50;67.40;;;;;;5070356;28;20439;-72
2023/02/27 15:21:42;;;;;;;8.33;7.97;;;4.40;67.80;;;;;;5070479;28;20829;-72
2023/02/27 15:24:22;;;;;;;8.57;8.17;;;4.50;68.50;;;;;;5068579;28;20797;-72
2023/02/27 15:26:52;;;;;;;8.50;8.20;;;4.40;67.70;;;;;;5068394;28;20927;-72
2023/02/27 15:29:22;;;;;;;8.77;8.47;;;4.40;68.20;;;;;;5070550;28;20821;-72
2023/02/27 15:31:49;;;;;;;10.07;9.57;;;4.40;68.00;;;;;;5070233;28;21033;-73
2023/02/27 15:34:17;;;;;;;10.23;9.80;;;4.30;68.50;;;;;;5070994;28;20440;-73
2023/02/27 15:36:50;;;;;;;8.37;7.97;;;4.20;68.50;;;;;;5070636;28;21086;-72
2023/02/27 15:39:19;;;;;;;8.87;8.40;;;4.10;68.60;;;;;;5070393;28;20923;-72
2023/02/27 15:41:50;;;;;;;8.73;8.43;;;4.00;69.20;;;;;;5070037;28;20440;-73
2023/02/27 15:44:19;;;;;;;10.03;9.63;;;3.90;69.20;;;;;;5070255;28;20815;-72
2023/02/27 15:46:46;;;;;;;9.90;9.30;;;3.90;69.30;;;;;;5070300;28;20821;-73
2023/02/27 15:49:18;;;;;;;9.07;8.67;;;3.90;69.60;;;;;;5069976;28;20509;-73
2023/02/27 15:51:54;;;;;;;9.20;8.80;;;3.90;69.90;;;;;;5070003;28;20475;-73
2023/02/27 15:54:22;;;;;;;8.00;7.50;;;4.00;70.00;;;;;;5069741;28;20446;-72
2023/02/27 15:56:49;;;;;;;8.47;8.10;;;3.90;69.80;;;;;;5069939;28;20509;-73
2023/02/27 15:59:18;;;;;;;7.70;7.40;;;4.00;69.20;;;;;;5069688;28;20828;-73
2023/02/27 16:01:45;;;;;;;8.43;8.03;;;4.10;68.90;;;;;;5069562;28;20444;-73
2023/02/27 16:04:22;;;;;;;10.47;10.07;;;4.00;68.90;;;;;;5069747;28;20454;-72
2023/02/27 16:06:57;;;;;;;10.00;9.40;;;3.80;68.90;;;;;;5069491;28;20571;-73
2023/02/27 16:09:29;;;;;;;9.00;8.50;;;3.70;68.30;;;;;;5068968;28;20531;-73
2023/02/27 16:12:21;;;;;;;8.80;8.40;;;3.70;68.80;;;;;;5069137;28;20575;-73
2023/02/27 16:14:51;;;;;;;9.40;9.00;;;3.80;69.90;;;;;;5069451;28;20451;-73
2023/02/27 16:17:24;;;;;;;7.80;7.30;;;3.70;69.50;;;;;;5069285;28;20534;-72
2023/02/27 16:19:51;;;;;;;8.97;8.57;;;3.70;69.60;;;;;;5068817;28;20797;-73
2023/02/27 16:22:21;;;;;;;6.77;6.57;;;3.60;69.30;;;;;;5068742;28;20443;-73
2023/02/27 16:24:49;;;;;;;8.50;8.10;;;3.70;70.40;;;;;;5069333;28;20520;-72
2023/02/27 16:27:18;;;;;;;9.63;9.20;;;3.60;70.40;;;;;;5069082;28;20483;-72
2023/02/27 16:29:46;;;;;;;9.40;8.97;;;3.60;71.70;;;;;;5069160;28;20450;-72
2023/02/27 16:32:23;;;;;;;9.70;9.10;;;3.60;71.90;;;;;;5068416;28;20568;-72
2023/02/27 16:34:50;;;;;;;8.50;8.00;;;3.60;72.10;;;;;;5068874;28;20471;-72
2023/02/27 16:37:21;;;;;;;8.10;7.80;;;3.60;72.90;;;;;;5068948;28;20463;-72
2023/02/27 16:39:49;;;;;;;9.97;9.47;;;3.40;72.60;;;;;;5069295;28;20455;-72
2023/02/27 16:42:16;;;;;;;8.80;8.30;;;3.40;73.20;;;;;;5068706;28;20454;-72
2023/02/27 16:44:42;;;;;;;8.50;8.20;;;3.40;73.80;;;;;;5068411;28;20455;-73
2023/02/27 16:47:09;;;;;;;8.63;8.33;;;3.40;72.90;;;;;;5068724;28;20451;-72
2023/02/27 16:49:37;;;;;;;10.33;9.67;;;3.30;70.80;;;;;;5068563;28;20447;-74
2023/02/27 16:52:04;;;;;;;8.97;8.57;;;3.30;70.80;;;;;;5068357;28;20487;-73
2023/02/27 16:54:34;;;;;;;8.60;8.30;;;3.20;70.10;;;;;;5068853;28;20509;-73
2023/02/27 16:57:01;;;;;;;7.90;7.50;;;3.20;70.30;;;;;;5068600;28;20546;-74
2023/02/27 16:59:29;;;;;;;8.30;8.00;;;3.20;70.50;;;;;;5068029;28;20489;-74
2023/02/27 17:01:57;;;;;;;8.27;7.87;;;3.10;70.80;;;;;;5068723;28;20447;-73
2023/02/27 17:04:25;;;;;;;8.30;7.90;;;3.20;71.40;;;;;;5068015;28;21015;-74
2023/02/27 17:06:53;;;;;;;10.23;9.73;;;3.20;71.20;;;;;;5067896;28;20990;-73
2023/02/27 17:09:20;;;;;;;9.47;9.07;;;3.20;71.70;;;;;;5068016;28;20465;-74
2023/02/27 17:11:48;;;;;;;8.60;8.10;;;3.20;72.00;;;;;;5068407;28;20513;-73
2023/02/27 17:14:15;;;;;;;8.43;8.03;;;3.20;71.90;;;;;;5067849;28;20455;-73
2023/02/27 17:16:42;;;;;;;9.90;9.50;;;3.10;72.40;;;;;;5068073;28;20459;-72
2023/02/27 17:19:09;;;;;;;9.07;8.77;;;3.10;72.80;;;;;;5068140;28;20455;-72
2023/02/27 17:21:35;;;;;;;9.37;8.97;;;3.10;72.50;;;;;;5067681;28;20447;-72
2023/02/27 17:24:02;;;;;;;10.30;9.60;;;3.10;72.80;;;;;;5068232;28;20439;-74
2023/02/27 17:26:29;;;;;;;8.40;8.00;;;3.00;72.30;;;;;;5068081;28;20564;-73
2023/02/27 17:28:58;;;;;;;8.50;8.20;;;3.00;73.50;;;;;;5067829;28;20462;-73
2023/02/27 17:31:25;;;;;;;11.40;10.70;;;3.00;72.60;;;;;;5067678;28;20455;-73
2023/02/27 17:33:53;;;;;;;8.50;8.20;;;3.00;72.20;;;;;;5067822;28;20455;-73
2023/02/27 17:36:20;;;;;;;8.80;8.30;;;3.00;72.50;;;;;;5068164;28;20530;-73
2023/02/27 17:38:47;;;;;;;7.90;7.50;;;2.90;73.10;;;;;;5067963;28;20969;-73
2023/02/27 17:41:15;;;;;;;8.73;8.03;;;2.90;73.50;;;;;;5067778;28;20818;-72
2023/02/27 17:43:42;;;;;;;7.57;7.27;;;2.90;73.50;;;;;;5067413;28;20807;-73
2023/02/27 17:46:13;;;;;;;8.57;7.93;;;2.90;74.30;;;;;;5067888;28;20450;-73
2023/02/27 17:48:40;;;;;;;8.80;8.40;;;2.90;74.40;;;;;;5067799;28;20459;-73
2023/02/27 17:51:09;;;;;;;8.20;7.70;;;2.80;74.40;;;;;;5067644;28;20451;-73
2023/02/27 17:53:36;;;;;;;7.70;7.30;;;2.80;74.50;;;;;;5067645;28;20486;-73
2023/02/27 17:56:04;;;;;;;8.80;8.40;;;2.70;75.20;;;;;;5067831;28;20459;-73
2023/02/27 17:58:31;;;;;;;9.50;8.67;;;2.70;75.20;;;;;;5067894;28;20443;-73
